Time;durP1;ratioP1;P1;durP2;ratioP2;P2;SDS_P1;SDS_P2;PMS_P1;PMS_P2;Temp;Humidity;BMP_temperature;BMP_pressure;BME280_temperature;BME280_humidity;BME280_pressure;Samples;Min_cycle;Max_cycle;Signal;HPM_P1;HPM_P2
2023/04/19 00:00:28;;;;;;;5.60;3.10;;;8.60;99.90;;;;;;5017801;28;20527;-68
2023/04/19 00:02:54;;;;;;;7.43;3.57;;;8.70;99.90;;;;;;5033661;28;20541;-69
2023/04/19 00:05:22;;;;;;;6.43;3.70;;;8.60;99.90;;;;;;5033117;28;20146;-69
2023/04/19 00:07:50;;;;;;;7.47;3.97;;;8.60;99.90;;;;;;5029500;28;20052;-69
2023/04/19 00:10:16;;;;;;;7.00;3.80;;;8.60;99.90;;;;;;5010960;28;20112;-69
2023/04/19 00:12:42;;;;;;;6.83;3.63;;;8.60;99.90;;;;;;5041737;28;20640;-69
2023/04/19 00:15:08;;;;;;;5.73;3.50;;;8.60;99.90;;;;;;5016213;28;20040;-68
2023/04/19 00:17:34;;;;;;;7.03;3.25;;;8.60;99.90;;;;;;5030013;28;20041;-69
2023/04/19 00:19:59;;;;;;;6.15;3.47;;;8.50;99.90;;;;;;5018052;28;20087;-68
2023/04/19 00:22:25;;;;;;;6.17;3.30;;;8.50;99.90;;;;;;5015561;28;20048;-69
2023/04/19 00:24:52;;;;;;;6.65;3.72;;;8.60;99.90;;;;;;5014435;28;20395;-69
2023/04/19 00:27:18;;;;;;;6.05;3.55;;;8.50;99.90;;;;;;5040272;28;20674;-68
2023/04/19 00:29:43;;;;;;;7.30;3.95;;;8.50;99.90;;;;;;5031037;28;20355;-69
2023/04/19 00:32:09;;;;;;;6.27;3.27;;;8.50;99.90;;;;;;5016266;28;20042;-69
2023/04/19 00:34:35;;;;;;;6.53;3.28;;;8.40;99.90;;;;;;5019129;28;20395;-69
2023/04/19 00:37:04;;;;;;;7.05;3.97;;;8.40;99.90;;;;;;5037385;28;20041;-69
2023/04/19 00:39:29;;;;;;;7.93;3.95;;;8.40;99.90;;;;;;5037485;28;20037;-68
2023/04/19 00:41:56;;;;;;;7.13;3.70;;;8.40;99.90;;;;;;5037864;28;20039;-68
2023/04/19 00:44:22;;;;;;;7.53;3.35;;;8.40;99.90;;;;;;5016251;28;20048;-69
2023/04/19 00:46:48;;;;;;;;;;;8.40;99.90;;;;;;5019073;28;20045;-68
2023/04/19 00:49:19;;;;;;;6.80;3.83;;;8.30;99.90;;;;;;5022644;28;19921;-68
2023/04/19 00:51:45;;;;;;;7.82;3.75;;;8.30;99.90;;;;;;5020067;28;20049;-70
2023/04/19 00:54:12;;;;;;;;;;;8.30;99.90;;;;;;5018148;28;20036;-69
2023/04/19 00:56:38;;;;;;;6.63;3.50;;;8.30;99.90;;;;;;5039159;28;19952;-69
2023/04/19 00:59:04;;;;;;;4.45;3.13;;;8.30;99.90;;;;;;5009392;28;20041;-69
2023/04/19 01:01:30;;;;;;;7.13;3.40;;;8.30;99.90;;;;;;5021257;28;20052;-68
2023/04/19 01:03:56;;;;;;;5.67;3.73;;;8.30;99.90;;;;;;5042930;28;20044;-68
2023/04/19 01:06:22;;;;;;;7.15;3.90;;;8.20;99.90;;;;;;5005251;28;20286;-68
2023/04/19 01:08:48;;;;;;;13.25;4.20;;;8.20;99.90;;;;;;5015908;28;20064;-69
2023/04/19 01:11:13;;;;;;;7.40;3.90;;;8.20;99.90;;;;;;5017161;28;20425;-69
2023/04/19 01:13:39;;;;;;;7.33;4.20;;;8.20;99.90;;;;;;5040438;28;20532;-69
2023/04/19 01:16:06;;;;;;;6.47;4.20;;;8.10;99.90;;;;;;5036907;28;20045;-68
2023/04/19 01:18:36;;;;;;;8.18;4.30;;;8.10;99.90;;;;;;5028923;28;20037;-68
2023/04/19 01:21:02;;;;;;;9.10;4.65;;;8.00;99.90;;;;;;5018169;28;20052;-68
2023/04/19 01:23:28;;;;;;;;;;;8.00;99.90;;;;;;5022071;28;20045;-68
2023/04/19 01:25:54;;;;;;;7.53;3.83;;;8.00;99.90;;;;;;5038086;28;19928;-69
2023/04/19 01:28:19;;;;;;;6.93;3.90;;;8.00;99.90;;;;;;5043565;28;20040;-68
2023/04/19 01:30:45;;;;;;;8.27;4.67;;;8.00;99.90;;;;;;5031562;28;20068;-68
2023/04/19 01:33:10;;;;;;;7.10;3.57;;;8.00;99.90;;;;;;5036968;28;20491;-69
2023/04/19 01:35:36;;;;;;;10.57;4.80;;;8.00;99.90;;;;;;5038887;28;20048;-69
2023/04/19 01:38:02;;;;;;;10.37;4.07;;;8.00;99.90;;;;;;5035847;28;20339;-69
2023/04/19 01:40:28;;;;;;;8.53;4.40;;;8.00;99.90;;;;;;5015203;28;20274;-69
2023/04/19 01:42:53;;;;;;;10.00;4.80;;;8.00;99.90;;;;;;5034285;28;20053;-69
2023/04/19 01:45:19;;;;;;;9.43;4.73;;;8.00;99.90;;;;;;5027775;28;20037;-68
2023/04/19 01:47:44;;;;;;;11.33;4.77;;;8.00;99.90;;;;;;5031967;28;20429;-68
2023/04/19 01:50:10;;;;;;;13.47;5.10;;;8.10;99.90;;;;;;5035440;28;20510;-69
2023/04/19 01:52:39;;;;;;;10.60;5.13;;;8.10;99.90;;;;;;5014419;28;20052;-69
2023/04/19 01:55:04;;;;;;;8.30;4.50;;;8.00;99.90;;;;;;5007480;28;20485;-70
2023/04/19 01:57:30;;;;;;;9.93;4.93;;;8.00;99.90;;;;;;5048043;28;20447;-69
2023/04/19 01:59:56;;;;;;;9.87;4.83;;;8.00;99.90;;;;;;5044060;28;20116;-67
2023/04/19 02:02:22;;;;;;;9.32;5.00;;;8.00;99.90;;;;;;5021529;28;20048;-70
2023/04/19 02:04:47;;;;;;;9.07;5.17;;;8.00;99.90;;;;;;5041105;28;20045;-67
2023/04/19 02:07:13;;;;;;;12.03;5.87;;;8.00;99.90;;;;;;5027828;28;20095;-66
2023/04/19 02:09:39;;;;;;;9.00;5.20;;;7.90;99.90;;;;;;5035241;28;20345;-67
2023/04/19 02:12:08;;;;;;;7.97;4.80;;;8.00;99.90;;;;;;5019211;28;20062;-67
2023/04/19 02:14:34;;;;;;;10.27;5.53;;;8.00;99.90;;;;;;5109187;22;20502;-69
2023/04/19 02:17:00;;;;;;;13.07;5.80;;;8.00;99.90;;;;;;5044925;28;20043;-69
2023/04/19 02:19:26;;;;;;;12.30;6.57;;;7.90;99.90;;;;;;5081612;28;20044;-69
2023/04/19 02:21:56;;;;;;;12.43;5.47;;;8.00;99.90;;;;;;5071984;28;20054;-69
2023/04/19 02:24:22;;;;;;;11.02;5.65;;;7.90;99.90;;;;;;5080509;28;20073;-69
2023/04/19 02:26:48;;;;;;;11.85;5.85;;;7.90;99.90;;;;;;5094774;28;20048;-69
2023/04/19 02:29:15;;;;;;;15.00;5.77;;;8.00;99.90;;;;;;5096950;28;20047;-69
2023/04/19 02:31:41;;;;;;;11.65;6.00;;;7.90;99.90;;;;;;5090571;28;20054;-69
2023/04/19 02:34:07;;;;;;;12.17;5.70;;;7.90;99.90;;;;;;5084355;28;20405;-69
2023/04/19 02:36:32;;;;;;;10.97;5.90;;;7.80;99.90;;;;;;5066805;28;20047;-68
2023/04/19 02:38:58;;;;;;;12.40;6.20;;;7.80;99.90;;;;;;5088593;28;20055;-68
2023/04/19 02:41:24;;;;;;;11.30;5.87;;;7.80;99.90;;;;;;5066282;28;20044;-69
2023/04/19 02:43:50;;;;;;;11.18;5.88;;;7.80;99.90;;;;;;5087720;28;20040;-68
2023/04/19 02:46:18;;;;;;;8.93;4.97;;;7.80;99.90;;;;;;5072788;28;20075;-68
2023/04/19 02:48:45;;;;;;;11.55;6.18;;;7.80;99.90;;;;;;5094115;28;20044;-68
2023/04/19 02:51:15;;;;;;;10.13;5.80;;;7.70;99.90;;;;;;5099562;28;20054;-74
2023/04/19 02:53:43;;;;;;;10.00;5.97;;;7.70;99.90;;;;;;5072695;28;20385;-69
2023/04/19 02:56:09;;;;;;;9.57;5.65;;;7.70;99.90;;;;;;5066386;28;20039;-68
2023/04/19 02:58:34;;;;;;;12.17;5.53;;;7.70;99.90;;;;;;5071674;28;20039;-76
2023/04/19 03:01:02;;;;;;;12.03;5.70;;;7.70;99.90;;;;;;5054076;28;20226;-68
2023/04/19 03:03:30;;;;;;;12.20;5.38;;;7.60;99.90;;;;;;5084792;28;20036;-75
2023/04/19 03:05:59;;;;;;;7.95;5.10;;;7.60;99.90;;;;;;5073594;28;20044;-76
2023/04/19 03:08:25;;;;;;;13.35;5.78;;;7.60;99.90;;;;;;5073559;28;20538;-68
2023/04/19 03:10:50;;;;;;;11.80;5.20;;;7.60;99.90;;;;;;5073974;28;20130;-69
2023/04/19 03:13:16;;;;;;;10.57;4.83;;;7.60;99.90;;;;;;5089005;28;20042;-69
2023/04/19 03:15:41;;;;;;;12.67;5.50;;;7.60;99.90;;;;;;5065163;28;20175;-70
2023/04/19 03:18:07;;;;;;;9.00;5.23;;;7.50;99.90;;;;;;5069666;28;20463;-69
2023/04/19 03:20:33;;;;;;;12.27;5.47;;;7.50;99.90;;;;;;5088429;28;20214;-70
2023/04/19 03:22:58;;;;;;;10.30;4.63;;;7.40;99.90;;;;;;5065483;28;20079;-69
2023/04/19 03:25:24;;;;;;;8.77;4.07;;;7.40;99.90;;;;;;5052651;28;20051;-69
2023/04/19 03:27:51;;;;;;;9.75;5.70;;;7.40;99.90;;;;;;5068059;28;20071;-70
2023/04/19 03:30:17;;;;;;;9.32;5.35;;;7.40;99.90;;;;;;5050617;28;20048;-70
2023/04/19 03:32:43;;;;;;;7.63;4.60;;;7.30;99.90;;;;;;5076145;28;20474;-69
2023/04/19 03:35:09;;;;;;;10.48;4.60;;;7.30;99.90;;;;;;5050802;28;20481;-72
2023/04/19 03:37:35;;;;;;;9.73;4.13;;;7.30;99.90;;;;;;5074680;28;20050;-72
2023/04/19 03:40:00;;;;;;;9.13;4.47;;;7.30;99.90;;;;;;5070256;28;20080;-72
2023/04/19 03:42:26;;;;;;;10.17;4.33;;;7.20;99.90;;;;;;5070100;28;20180;-72
2023/04/19 03:44:52;;;;;;;8.30;4.20;;;7.20;99.90;;;;;;5069700;28;20044;-72
2023/04/19 03:47:17;;;;;;;7.23;3.87;;;7.10;99.90;;;;;;5061429;28;20044;-72
2023/04/19 03:49:43;;;;;;;8.90;4.43;;;7.10;99.90;;;;;;5090342;28;20130;-72
2023/04/19 03:52:08;;;;;;;9.30;4.20;;;7.10;99.90;;;;;;5063702;28;20032;-72
2023/04/19 03:54:34;;;;;;;9.03;4.17;;;7.10;99.90;;;;;;5074959;28;20040;-72
2023/04/19 03:57:00;;;;;;;10.30;3.90;;;7.00;99.90;;;;;;5072434;28;20079;-72
2023/04/19 03:59:25;;;;;;;8.40;4.13;;;7.00;99.90;;;;;;5072911;28;20409;-72
2023/04/19 04:01:51;;;;;;;7.90;3.20;;;7.00;99.90;;;;;;5090522;28;20128;-72
2023/04/19 04:04:16;;;;;;;8.03;4.03;;;6.90;99.90;;;;;;5068930;28;20040;-72
2023/04/19 04:06:43;;;;;;;9.00;3.47;;;6.90;99.90;;;;;;5077506;28;20411;-72
2023/04/19 04:09:08;;;;;;;8.63;4.22;;;6.80;99.90;;;;;;5074121;28;20065;-72
2023/04/19 04:11:34;;;;;;;7.10;3.50;;;6.80;99.90;;;;;;5072585;28;20049;-72
2023/04/19 04:13:59;;;;;;;7.80;4.17;;;6.80;99.90;;;;;;5068044;28;20040;-72
2023/04/19 04:16:25;;;;;;;9.70;4.03;;;6.70;99.90;;;;;;5085083;28;20036;-72
2023/04/19 04:18:51;;;;;;;5.70;3.60;;;6.70;99.90;;;;;;5077612;28;20047;-72
2023/04/19 04:21:16;;;;;;;7.27;4.60;;;6.70;99.90;;;;;;5071502;28;20072;-72
2023/04/19 04:23:42;;;;;;;7.93;3.50;;;6.70;99.90;;;;;;5076946;28;20040;-72
2023/04/19 04:26:08;;;;;;;7.20;3.73;;;6.60;99.90;;;;;;5099324;28;20047;-72
2023/04/19 04:28:34;;;;;;;8.13;3.92;;;6.60;99.90;;;;;;5077563;28;20531;-72
2023/04/19 04:31:01;;;;;;;8.87;4.20;;;6.60;99.90;;;;;;5078364;28;20123;-72
2023/04/19 04:33:27;;;;;;;8.80;4.22;;;6.60;99.90;;;;;;5076684;28;20047;-72
2023/04/19 04:35:55;;;;;;;7.15;4.38;;;6.60;99.90;;;;;;5082913;28;20040;-72
2023/04/19 04:38:20;;;;;;;10.68;4.03;;;6.60;99.90;;;;;;5080811;28;20047;-69
2023/04/19 04:40:53;;;;;;;9.80;3.90;;;6.60;99.90;;;;;;5096022;28;20036;-69
2023/04/19 04:43:22;;;;;;;6.55;3.60;;;6.60;99.90;;;;;;5078690;28;20051;-69
2023/04/19 04:45:48;;;;;;;6.72;3.35;;;6.60;99.90;;;;;;5073544;28;20047;-69
2023/04/19 04:48:15;;;;;;;8.02;4.07;;;6.60;99.90;;;;;;5071997;28;20879;-69
2023/04/19 04:50:40;;;;;;;7.30;3.63;;;6.50;99.90;;;;;;5072739;28;20401;-69
2023/04/19 04:53:06;;;;;;;8.15;3.35;;;6.50;99.90;;;;;;5078564;28;20040;-69
2023/04/19 04:55:33;;;;;;;7.05;3.38;;;6.50;99.90;;;;;;5099155;28;20043;-69
2023/04/19 04:57:59;;;;;;;7.57;3.45;;;6.50;99.90;;;;;;5068636;28;20032;-69
2023/04/19 05:00:25;;;;;;;7.43;3.03;;;6.60;99.90;;;;;;5088783;28;20273;-69
2023/04/19 05:02:51;;;;;;;5.83;2.87;;;6.60;99.90;;;;;;5078974;28;20108;-70
2023/04/19 05:05:17;;;;;;;8.00;3.23;;;6.50;99.90;;;;;;5094001;28;20096;-70
2023/04/19 05:07:42;;;;;;;5.90;3.05;;;6.60;99.90;;;;;;5074357;28;20299;-69
2023/04/19 05:10:08;;;;;;;7.57;3.30;;;6.60;99.90;;;;;;5099961;28;20344;-69
2023/04/19 05:12:36;;;;;;;4.75;2.95;;;6.60;99.90;;;;;;5073131;28;20044;-69
2023/04/19 05:15:02;;;;;;;8.73;3.50;;;6.60;99.90;;;;;;5072958;28;20055;-70
2023/04/19 05:17:27;;;;;;;4.90;2.80;;;6.60;99.90;;;;;;5067679;28;20047;-69
2023/04/19 05:19:53;;;;;;;8.20;3.67;;;6.70;99.90;;;;;;5079485;28;20035;-69
2023/04/19 05:22:19;;;;;;;7.10;3.63;;;6.70;99.90;;;;;;5076288;28;20378;-70
2023/04/19 05:24:46;;;;;;;6.23;3.07;;;6.70;99.90;;;;;;5077306;28;20096;-69
2023/04/19 05:27:11;;;;;;;7.97;3.95;;;6.70;99.90;;;;;;5073030;28;20047;-70
2023/04/19 05:29:37;;;;;;;6.57;3.67;;;6.70;99.90;;;;;;5072714;28;20424;-70
2023/04/19 05:32:02;;;;;;;6.27;3.47;;;6.70;99.90;;;;;;5092281;28;20036;-69
2023/04/19 05:34:29;;;;;;;9.60;3.43;;;6.80;99.90;;;;;;5066262;28;20035;-69
2023/04/19 05:36:54;;;;;;;5.00;2.90;;;6.80;99.90;;;;;;5081781;28;20123;-70
2023/04/19 05:39:20;;;;;;;12.57;3.60;;;6.80;99.90;;;;;;5094562;28;20139;-69
2023/04/19 05:41:45;;;;;;;8.80;3.57;;;6.90;99.90;;;;;;5073356;28;20489;-69
2023/04/19 05:44:11;;;;;;;5.73;2.77;;;6.90;99.90;;;;;;5089330;28;20054;-70
2023/04/19 05:46:37;;;;;;;5.87;3.03;;;7.00;99.90;;;;;;5070817;28;20044;-69
2023/04/19 05:49:02;;;;;;;5.00;2.83;;;7.00;99.90;;;;;;5092708;28;20067;-68
2023/04/19 05:51:28;;;;;;;9.87;3.37;;;7.00;99.90;;;;;;5071024;28;20044;-69
2023/04/19 05:53:53;;;;;;;5.87;2.67;;;7.10;99.90;;;;;;5074617;28;20039;-69
2023/04/19 05:56:19;;;;;;;4.63;2.67;;;7.10;99.90;;;;;;5070120;28;20093;-71
2023/04/19 05:58:45;;;;;;;6.77;2.67;;;7.20;99.90;;;;;;5070404;28;20032;-71
2023/04/19 06:01:11;;;;;;;6.33;2.90;;;7.20;99.90;;;;;;5071480;28;20048;-71
2023/04/19 06:03:36;;;;;;;6.95;2.55;;;7.20;99.90;;;;;;5070985;28;20120;-73
2023/04/19 06:06:02;;;;;;;4.07;2.37;;;7.30;99.90;;;;;;5086592;28;20051;-74
2023/04/19 06:08:28;;;;;;;5.00;2.33;;;7.40;99.90;;;;;;5059928;28;20039;-73
2023/04/19 06:10:54;;;;;;;5.27;2.57;;;7.40;99.90;;;;;;5069455;28;20040;-75
2023/04/19 06:13:21;;;;;;;7.78;3.00;;;7.40;99.90;;;;;;5068675;28;20036;-72
2023/04/19 06:15:47;;;;;;;4.70;2.00;;;7.50;99.90;;;;;;5061746;28;20088;-72
2023/04/19 06:18:13;;;;;;;4.47;2.33;;;7.60;99.90;;;;;;5076419;28;20076;-72
2023/04/19 06:20:39;;;;;;;5.63;2.57;;;7.60;99.90;;;;;;5071438;28;20146;-71
2023/04/19 06:23:08;;;;;;;5.82;2.00;;;7.60;99.90;;;;;;5072146;28;20036;-72
2023/04/19 06:25:33;;;;;;;4.53;2.30;;;7.70;99.90;;;;;;5064641;28;20313;-72
2023/04/19 06:27:59;;;;;;;4.47;1.90;;;7.70;99.90;;;;;;5067907;28;20511;-72
2023/04/19 06:30:25;;;;;;;4.83;2.33;;;7.80;99.90;;;;;;5053978;28;20043;-72
2023/04/19 06:32:51;;;;;;;4.85;2.20;;;7.80;99.90;;;;;;5073409;28;20042;-72
2023/04/19 06:35:17;;;;;;;5.85;1.73;;;7.90;99.90;;;;;;5062851;28;20067;-72
2023/04/19 06:37:42;;;;;;;4.47;1.87;;;7.90;99.90;;;;;;5071794;28;20036;-72
2023/04/19 06:40:08;;;;;;;3.87;1.97;;;7.90;99.90;;;;;;5066207;28;20061;-75
2023/04/19 06:42:34;;;;;;;5.22;2.38;;;7.90;99.90;;;;;;5070533;28;20047;-72
2023/04/19 06:45:00;;;;;;;4.80;2.25;;;8.00;99.90;;;;;;5067404;28;20071;-72
2023/04/19 06:47:26;;;;;;;4.50;1.90;;;8.10;99.90;;;;;;5065497;28;20052;-71
2023/04/19 06:49:51;;;;;;;4.70;1.80;;;8.10;99.90;;;;;;5067208;28;20554;-72
2023/04/19 06:52:17;;;;;;;4.63;1.70;;;8.20;99.90;;;;;;5069237;28;20036;-72
2023/04/19 06:54:49;;;;;;;4.30;1.73;;;8.20;99.90;;;;;;5067335;28;20194;-72
2023/04/19 06:57:18;;;;;;;4.35;2.13;;;8.20;99.90;;;;;;5085949;28;20047;-72
2023/04/19 06:59:44;;;;;;;4.63;1.80;;;8.20;99.90;;;;;;5069014;28;20047;-72
2023/04/19 07:02:12;;;;;;;3.20;1.75;;;8.30;99.90;;;;;;5050441;28;20190;-72
2023/04/19 07:04:38;;;;;;;4.67;2.23;;;8.40;99.90;;;;;;5072242;28;20046;-72
2023/04/19 07:07:03;;;;;;;8.87;2.03;;;8.50;99.90;;;;;;5083805;28;20043;-72
2023/04/19 07:09:29;;;;;;;2.93;1.40;;;8.50;99.90;;;;;;5082493;28;20090;-72
2023/04/19 07:11:54;;;;;;;3.60;1.90;;;8.50;99.90;;;;;;5077387;28;20048;-73
2023/04/19 07:14:20;;;;;;;3.93;1.77;;;8.60;99.90;;;;;;5074803;28;20123;-69
2023/04/19 07:16:46;;;;;;;4.23;1.40;;;8.80;99.90;;;;;;5071521;28;20139;-69
2023/04/19 07:19:12;;;;;;;4.32;1.60;;;8.90;99.90;;;;;;5074032;28;20035;-69
2023/04/19 07:21:38;;;;;;;3.53;1.80;;;8.90;99.90;;;;;;5078330;28;20127;-70
2023/04/19 07:24:05;;;;;;;3.63;1.60;;;8.90;99.90;;;;;;5067899;28;20466;-69
2023/04/19 07:26:32;;;;;;;3.47;1.77;;;9.00;99.90;;;;;;5071986;28;20486;-70
2023/04/19 07:28:58;;;;;;;4.75;2.00;;;9.00;99.90;;;;;;5073579;28;20055;-70
2023/04/19 07:31:24;;;;;;;3.30;1.73;;;9.10;99.90;;;;;;5049516;28;20058;-69
2023/04/19 07:33:51;;;;;;;2.85;1.60;;;9.20;99.90;;;;;;5087330;28;20035;-69
2023/04/19 07:36:17;;;;;;;5.05;1.58;;;9.20;99.90;;;;;;5069679;28;20048;-70
2023/04/19 07:38:43;;;;;;;4.25;2.10;;;9.30;99.90;;;;;;5078988;28;20062;-69
2023/04/19 07:41:09;;;;;;;3.57;2.10;;;9.40;99.90;;;;;;5056104;28;20040;-69
2023/04/19 07:43:35;;;;;;;2.28;1.30;;;9.40;99.90;;;;;;5066663;28;20059;-69
2023/04/19 07:46:01;;;;;;;;;;;9.50;99.90;;;;;;5066409;28;20140;-70
2023/04/19 07:48:27;;;;;;;4.18;1.45;;;9.50;99.90;;;;;;5087016;28;19924;-69
2023/04/19 07:50:53;;;;;;;4.87;1.33;;;9.60;99.90;;;;;;5080455;28;20097;-72
2023/04/19 07:53:19;;;;;;;2.67;1.40;;;9.70;99.90;;;;;;5070723;28;20040;-72
2023/04/19 07:55:45;;;;;;;3.00;1.50;;;9.80;99.90;;;;;;5060418;28;20307;-72
2023/04/19 07:58:11;;;;;;;3.10;1.30;;;9.90;99.90;;;;;;5078858;28;20078;-72
2023/04/19 08:00:37;;;;;;;2.58;1.40;;;9.90;99.90;;;;;;5073784;28;20044;-73
2023/04/19 08:03:03;;;;;;;2.80;1.38;;;10.00;99.90;;;;;;5095338;28;20044;-70
2023/04/19 08:05:29;;;;;;;3.38;1.42;;;10.00;99.90;;;;;;5075750;28;20071;-69
2023/04/19 08:07:55;;;;;;;3.58;1.60;;;10.10;99.90;;;;;;5051906;28;20472;-70
2023/04/19 08:10:21;;;;;;;3.80;1.80;;;10.20;99.90;;;;;;5073443;28;20050;-70
2023/04/19 08:12:48;;;;;;;2.77;1.40;;;10.30;99.60;;;;;;5074961;28;20043;-69
2023/04/19 08:15:14;;;;;;;4.38;1.50;;;10.30;99.20;;;;;;5087775;28;20280;-70
2023/04/19 08:17:43;;;;;;;3.33;1.73;;;10.40;98.60;;;;;;5074649;28;20130;-69
2023/04/19 08:20:13;;;;;;;3.90;1.73;;;10.50;98.10;;;;;;5086154;28;20445;-69
2023/04/19 08:22:39;;;;;;;3.35;1.55;;;10.50;97.50;;;;;;5089879;28;20043;-70
2023/04/19 08:25:06;;;;;;;2.20;1.30;;;10.60;96.50;;;;;;5079849;28;20476;-69
2023/04/19 08:27:32;;;;;;;2.38;1.40;;;10.60;96.60;;;;;;5091327;28;20064;-70
2023/04/19 08:29:57;;;;;;;3.10;1.70;;;10.60;97.00;;;;;;5065697;28;20040;-70
2023/04/19 08:32:23;;;;;;;2.10;1.13;;;10.80;96.70;;;;;;5094288;28;20529;-70
2023/04/19 08:34:49;;;;;;;4.13;1.47;;;10.90;96.40;;;;;;5088896;28;20040;-71
2023/04/19 08:39:41;;;;;;;4.35;1.20;;;11.00;94.60;;;;;;5020608;28;20462;-69
2023/04/19 08:42:08;;;;;;;3.97;1.20;;;11.10;94.10;;;;;;5036662;28;20104;-68
2023/04/19 08:44:37;;;;;;;3.92;1.25;;;11.20;93.60;;;;;;5027435;28;20045;-69
2023/04/19 08:47:04;;;;;;;6.75;1.60;;;11.30;93.40;;;;;;5012628;28;21090;-69
2023/04/19 08:49:33;;;;;;;4.95;1.88;;;11.30;92.50;;;;;;5005870;28;20458;-69
2023/04/19 08:52:00;;;;;;;2.83;1.30;;;11.40;91.70;;;;;;5040694;28;20229;-69
2023/04/19 08:54:28;;;;;;;3.13;1.60;;;11.50;90.40;;;;;;5001290;28;20460;-69
2023/04/19 08:56:57;;;;;;;2.20;1.23;;;11.60;89.80;;;;;;5005842;28;20041;-68
2023/04/19 08:59:23;;;;;;;3.63;1.15;;;11.60;86.50;;;;;;5034076;28;20076;-69
2023/04/19 09:01:49;;;;;;;4.83;1.43;;;11.70;86.40;;;;;;5039657;28;20455;-69
2023/04/19 09:04:14;;;;;;;2.13;1.20;;;11.80;86.70;;;;;;5036298;28;20112;-68
2023/04/19 09:06:40;;;;;;;2.28;1.58;;;11.90;86.90;;;;;;5007414;28;20301;-68
2023/04/19 09:09:21;;;;;;;4.07;1.27;;;12.00;85.60;;;;;;5004608;28;20902;-69
2023/04/19 09:11:47;;;;;;;2.20;1.33;;;12.10;85.20;;;;;;5008618;28;20050;-69
2023/04/19 09:14:15;;;;;;;2.38;0.85;;;12.10;84.50;;;;;;5023119;28;20454;-69
2023/04/19 09:16:42;;;;;;;2.78;1.20;;;12.30;82.10;;;;;;4995739;28;20042;-69
2023/04/19 09:19:08;;;;;;;3.83;1.27;;;12.30;81.20;;;;;;4992731;28;20731;-69
2023/04/19 09:21:34;;;;;;;2.05;0.98;;;12.40;81.10;;;;;;5032478;28;21001;-69
2023/04/19 09:24:01;;;;;;;2.17;0.95;;;12.40;80.30;;;;;;4999325;28;20054;-68
2023/04/19 09:26:28;;;;;;;;;;;12.50;80.70;;;;;;5000570;28;20061;-69
2023/04/19 09:29:01;;;;;;;1.83;0.90;;;12.60;79.10;;;;;;5000234;28;20003;-68
2023/04/19 09:31:27;;;;;;;1.92;0.90;;;12.70;77.30;;;;;;5014730;28;20050;-68
2023/04/19 09:33:54;;;;;;;2.55;1.00;;;12.80;74.10;;;;;;5001822;28;20050;-68
2023/04/19 09:36:27;;;;;;;;;;;12.80;75.80;;;;;;5001938;28;20046;-69
2023/04/19 09:38:53;;;;;;;3.38;1.35;;;13.00;75.40;;;;;;5000045;28;19921;-69
2023/04/19 09:41:18;;;;;;;1.73;0.95;;;13.10;75.80;;;;;;5029802;28;20053;-69
2023/04/19 09:43:45;;;;;;;3.13;1.43;;;13.20;76.00;;;;;;5004018;28;20388;-69
2023/04/19 09:46:33;;;;;;;2.38;1.10;;;13.30;76.00;;;;;;5015465;28;20589;-68
2023/04/19 09:49:14;;;;;;;6.15;1.00;;;13.40;76.40;;;;;;5005093;28;20138;-68
2023/04/19 09:51:47;;;;;;;1.95;0.90;;;13.50;75.10;;;;;;4999760;28;20492;-68
2023/04/19 09:54:15;;;;;;;2.53;1.33;;;13.60;75.00;;;;;;5028110;28;20061;-68
2023/04/19 09:56:41;;;;;;;2.10;1.20;;;13.60;74.50;;;;;;5000939;28;20149;-68
2023/04/19 09:59:08;;;;;;;1.70;1.02;;;13.70;74.20;;;;;;5000196;28;20713;-68
2023/04/19 10:01:43;;;;;;;1.63;1.02;;;13.80;75.00;;;;;;4999044;28;20115;-68
2023/04/19 10:04:20;;;;;;;2.40;1.17;;;13.90;72.40;;;;;;4993607;28;20492;-68
2023/04/19 10:06:48;;;;;;;2.05;1.00;;;13.90;72.20;;;;;;5035857;28;20092;-68
2023/04/19 10:09:14;;;;;;;2.10;1.10;;;13.90;72.40;;;;;;4997410;28;20053;-69
2023/04/19 10:11:42;;;;;;;2.47;1.10;;;13.90;72.50;;;;;;5026648;28;20476;-68
2023/04/19 10:14:09;;;;;;;3.10;1.10;;;14.00;72.20;;;;;;4994735;28;20393;-68
2023/04/19 10:16:37;;;;;;;2.95;1.45;;;14.10;73.50;;;;;;4997547;28;20042;-68
2023/04/19 10:19:10;;;;;;;2.70;1.17;;;14.20;73.00;;;;;;4996411;28;20446;-68
2023/04/19 10:21:37;;;;;;;3.25;1.10;;;14.30;72.00;;;;;;4982871;28;20065;-67
2023/04/19 10:24:03;;;;;;;1.98;0.80;;;14.40;70.60;;;;;;5034692;28;20205;-68
2023/04/19 10:26:29;;;;;;;2.22;1.00;;;14.40;70.20;;;;;;5002684;28;20523;-68
2023/04/19 10:28:56;;;;;;;;;;;14.40;69.20;;;;;;5001347;28;20085;-69
2023/04/19 10:31:25;;;;;;;2.03;1.02;;;14.40;70.00;;;;;;5034899;28;19952;-68
2023/04/19 10:33:51;;;;;;;3.80;1.08;;;14.60;68.80;;;;;;5002666;28;20495;-68
2023/04/19 10:36:17;;;;;;;2.10;0.90;;;14.60;68.90;;;;;;4999721;28;20046;-68
2023/04/19 10:38:48;;;;;;;2.42;1.35;;;14.70;68.10;;;;;;4998482;28;20052;-68
2023/04/19 10:41:15;;;;;;;2.63;1.10;;;14.80;68.00;;;;;;4997886;28;20189;-69
2023/04/19 10:43:56;;;;;;;3.28;0.93;;;14.90;68.00;;;;;;5002978;28;20398;-68
2023/04/19 10:46:27;;;;;;;4.22;1.30;;;14.90;67.20;;;;;;5012993;28;20092;-68
2023/04/19 10:48:57;;;;;;;3.13;1.20;;;15.00;67.20;;;;;;5029938;28;20454;-68
2023/04/19 10:51:37;;;;;;;1.73;0.90;;;15.10;66.00;;;;;;5013158;28;20046;-68
2023/04/19 10:54:04;;;;;;;1.50;0.77;;;15.10;64.80;;;;;;5000843;28;20056;-68
2023/04/19 10:56:33;;;;;;;2.28;0.80;;;15.20;64.30;;;;;;5005502;28;20042;-68
2023/04/19 10:59:04;;;;;;;1.40;0.55;;;15.20;62.60;;;;;;4995189;28;20524;-68
2023/04/19 11:01:44;;;;;;;2.00;0.88;;;15.10;63.40;;;;;;5032235;28;20364;-68
2023/04/19 11:04:18;;;;;;;2.90;1.10;;;15.20;63.60;;;;;;4997403;28;20061;-68
2023/04/19 11:06:50;;;;;;;2.63;0.82;;;15.20;64.20;;;;;;5002215;28;20059;-69
2023/04/19 11:09:25;;;;;;;1.85;0.90;;;15.20;64.80;;;;;;5002243;28;20046;-69
2023/04/19 11:12:07;;;;;;;2.95;0.80;;;15.30;65.10;;;;;;5030971;28;20045;-68
2023/04/19 11:14:41;;;;;;;1.90;1.00;;;15.30;64.60;;;;;;4995317;28;20109;-69
2023/04/19 11:17:26;;;;;;;1.15;0.52;;;15.40;64.70;;;;;;4997288;28;20042;-68
2023/04/19 11:19:52;;;;;;;1.02;0.60;;;15.40;62.50;;;;;;5030532;28;20046;-68
2023/04/19 11:22:23;;;;;;;;;;;15.40;62.40;;;;;;5002500;28;20069;-68
2023/04/19 11:24:48;;;;;;;2.55;0.73;;;15.30;62.50;;;;;;5019382;28;20047;-68
2023/04/19 11:27:14;;;;;;;1.98;1.00;;;15.30;60.40;;;;;;5001236;28;20061;-68
2023/04/19 11:29:40;;;;;;;1.45;0.73;;;15.30;61.60;;;;;;5007693;28;20448;-68
2023/04/19 11:32:06;;;;;;;5.10;0.70;;;15.30;62.40;;;;;;4993924;28;20081;-68
2023/04/19 11:34:36;;;;;;;1.80;0.80;;;15.40;62.90;;;;;;4989001;28;20061;-69
2023/04/19 11:37:02;;;;;;;3.80;0.90;;;15.50;63.30;;;;;;5004741;28;20543;-68
2023/04/19 11:39:28;;;;;;;1.60;0.80;;;15.60;62.70;;;;;;5005027;28;20084;-68
2023/04/19 11:41:53;;;;;;;8.70;1.10;;;15.60;63.30;;;;;;5001118;28;20501;-68
2023/04/19 11:44:19;;;;;;;1.98;0.68;;;15.70;63.40;;;;;;5006840;28;20090;-68
2023/04/19 11:46:59;;;;;;;2.22;1.10;;;15.70;63.20;;;;;;4999030;28;20301;-69
2023/04/19 11:49:29;;;;;;;2.47;1.02;;;15.80;61.80;;;;;;5001077;28;20255;-68
2023/04/19 11:52:05;;;;;;;2.42;0.60;;;15.80;62.20;;;;;;4998943;28;20743;-69
2023/04/19 11:54:31;;;;;;;5.13;1.10;;;15.80;61.50;;;;;;5033459;28;20042;-68
2023/04/19 11:57:07;;;;;;;1.63;0.85;;;15.80;62.00;;;;;;5000004;28;20554;-68
2023/04/19 11:59:34;;;;;;;3.00;1.15;;;15.70;61.70;;;;;;5002862;28;20096;-68
2023/04/19 12:02:11;;;;;;;2.05;1.10;;;15.60;62.00;;;;;;5003191;28;20084;-69
2023/04/19 12:04:37;;;;;;;3.58;1.33;;;15.70;62.00;;;;;;4986425;28;20124;-69
2023/04/19 12:07:04;;;;;;;2.08;1.15;;;15.70;63.20;;;;;;5004366;28;20052;-69
2023/04/19 12:09:33;;;;;;;2.53;1.10;;;15.90;63.80;;;;;;4996787;28;20099;-68
2023/04/19 12:11:59;;;;;;;4.15;1.20;;;15.90;64.20;;;;;;5003913;28;20037;-69
2023/04/19 12:14:25;;;;;;;4.82;1.20;;;15.90;64.30;;;;;;5039730;28;20044;-68
2023/04/19 12:17:04;;;;;;;3.30;1.10;;;15.90;64.40;;;;;;5007633;28;20080;-69
2023/04/19 12:19:36;;;;;;;2.25;1.17;;;15.90;64.20;;;;;;5006324;28;20291;-68
2023/04/19 12:22:18;;;;;;;2.80;1.52;;;16.00;65.00;;;;;;5008501;28;20526;-68
2023/04/19 12:24:44;;;;;;;3.88;1.27;;;16.00;64.70;;;;;;5007671;28;20385;-68
2023/04/19 12:27:10;;;;;;;2.35;1.30;;;16.00;64.50;;;;;;4989483;28;20111;-68
2023/04/19 12:29:36;;;;;;;2.58;1.40;;;16.10;65.00;;;;;;5007567;28;20414;-68
2023/04/19 12:32:02;;;;;;;;;;;16.10;64.60;;;;;;5012018;28;20399;-69
2023/04/19 12:34:28;;;;;;;2.67;1.40;;;16.10;64.60;;;;;;5044273;28;19921;-69
2023/04/19 12:36:55;;;;;;;3.88;1.95;;;16.00;65.20;;;;;;5004588;28;20136;-68
2023/04/19 12:39:20;;;;;;;4.18;2.00;;;16.00;65.40;;;;;;5008590;28;20046;-68
2023/04/19 12:41:47;;;;;;;6.18;1.92;;;16.10;65.30;;;;;;5007328;28;20483;-68
2023/04/19 12:44:13;;;;;;;3.45;1.70;;;16.10;65.10;;;;;;5032343;28;22589;-69
2023/04/19 12:46:39;;;;;;;5.43;1.67;;;16.10;65.40;;;;;;5035282;28;20045;-68
2023/04/19 12:49:04;;;;;;;2.77;1.43;;;16.10;65.90;;;;;;5004265;28;20069;-68
2023/04/19 12:51:30;;;;;;;3.13;1.83;;;16.10;66.20;;;;;;5014616;28;20375;-69
2023/04/19 12:53:56;;;;;;;5.05;1.90;;;16.10;65.80;;;;;;5007972;28;20469;-68
2023/04/19 12:56:22;;;;;;;5.60;2.30;;;16.20;65.80;;;;;;5006855;28;20065;-69